Skip to main content.
Our real time weather data display below is updated continuously via our 24/7 live data feed.
 TIME   TEMPERATURE   WINDSPEED   DIRECTION   HUMIDITY   BAROMETER   RAINFALL 
1:00 25.0°C (77.0°F) 9.3 kmh (5.8 mph) E 83% 1012.9hPa (29.91 inHg) 4.0mm (0.16 in.)
23:59 26.0°C (78.8 °F) 7.4 kmh (4.6 mph) E 78% 1012.9hPa (29.91 inHg) 4.0mm (0.16 in.)
22:57 26.0°C (78.8 °F) 7.4 kmh (4.6 mph) E 78% 1012.9hPa (29.91 inHg) 4.0mm (0.16 in.)
21:49 25.0°C (77.0 °F) 5.6 kmh (3.5 mph) WNW 88% 1012.9hPa (29.91 inHg) 4.0mm (0.16 in.)
20:49 25.0°C (77.0 °F) 9.3 kmh (5.8 mph) WSW 88% 1012.9hPa (29.91 inHg) 4.0mm (0.16 in.)
19:49 26.0°C (78.8 °F) 7.4 kmh (4.6 mph) W 78% 1011.9hPa (29.88 inHg) 4.0mm (0.16 in.)
18:49 27.0°C (80.6 °F) 13.0 kmh (8.1 mph) ESE 78% 1011.9hPa (29.88 inHg) 4.0mm (0.16 in.)
17:49 27.0°C (80.6 °F) 16.7 kmh (10.4 mph) E 78% 1011.9hPa (29.88 inHg) 4.0mm (0.16 in.)
16:48 29.0°C (84.2 °F) 16.7 kmh (10.4 mph) ESE 65% 1012.9hPa (29.91 inHg) 2.0mm (0.08 in.)
15:48 27.0°C (80.6 °F) 9.3 kmh (5.8 mph) ENE 74% 1012.9hPa (29.91 inHg) 2.0mm (0.08 in.)
14:48 25.0°C (77.0 °F) 7.4 kmh (4.6 mph) N 83% 1013.9hPa (29.94 inHg) 2.0mm (0.08 in.)
13:48 28.0°C (82.4 °F) 18.5 kmh (11.5 mph) ESE 69% 1013.9hPa (29.94 inHg) 2.0mm (0.08 in.)
12:48 28.0°C (82.4 °F) 18.5 kmh (11.5 mph) ESE 69% 1013.9hPa (29.94 inHg) 2.0mm (0.08 in.)
11:47 30.0°C (86.0 °F) 13.0 kmh (8.1 mph) SE 58% 1013.9hPa (29.94 inHg) 2.0mm (0.08 in.)
10:47 29.0°C (84.2 °F) 13.0 kmh (8.1 mph) SSE 58% 1013.9hPa (29.94 inHg) 2.0mm (0.08 in.)
9:46 28.0°C (82.4 °F) 11.1 kmh (6.9 mph) ENE 65% 1013.9hPa (29.94 inHg) 2.0mm (0.08 in.)
8:46 26.0°C (78.8 °F) 5.6 kmh (3.5 mph) NNE 78% 1012.9hPa (29.91 inHg) 0.0mm (0.00 in.)
7:46 25.0°C (77.0 °F) 1.9 kmh (1.2 mph) N 83% 1012.9hPa (29.91 inHg) 0.0mm (0.00 in.)
6:46 25.0°C (77.0 °F) 5.6 kmh (3.5 mph) W 83% 1012.9hPa (29.91 inHg) 0.0mm (0.00 in.)
5:46 25.0°C (77.0 °F) 5.6 kmh (3.5 mph) W 78% 1012.9hPa (29.91 inHg) 0.0mm (0.00 in.)
4:46 26.0°C (78.8 °F) 5.6 kmh (3.5 mph) SE 73% 1012.9hPa (29.91 inHg) 0.0mm (0.00 in.)
3:46 26.0°C (78.8 °F) 5.6 kmh (3.5 mph) S 73% 1012.9hPa (29.91 inHg) 0.0mm (0.00 in.)
2:46 26.0°C (78.8 °F) 7.4 kmh (4.6 mph) S 78% 1013.9hPa (29.94 inHg) 0.0mm (0.00 in.)
1:46 26.0°C (78.8 °F) 5.6 kmh (3.5 mph) S 78% 1013.9hPa (29.94 inHg) 0.0mm (0.00 in.)